Time;durP1;ratioP1;P1;durP2;ratioP2;P2;SDS_P1;SDS_P2;PMS_P1;PMS_P2;Temp;Humidity;BMP_temperature;BMP_pressure;BME280_temperature;BME280_humidity;BME280_pressure;Samples;Min_cycle;Max_cycle;Signal;HPM_P1;HPM_P2
2021/10/09 00:01:39;;;;;;;16.83;10.68;;;;;;;2.26;65.57;101000.75;4916058;29;20045;-79
2021/10/09 00:04:06;;;;;;;16.60;10.55;;;;;;;2.17;65.73;100981.59;4904750;29;20123;-79
2021/10/09 00:06:32;;;;;;;15.85;10.13;;;;;;;2.18;65.57;100983.34;4900468;29;20055;-80
2021/10/09 00:08:59;;;;;;;17.20;10.80;;;;;;;2.21;65.53;100982.38;4884765;29;20063;-79
2021/10/09 00:11:38;;;;;;;15.43;10.05;;;;;;;2.21;65.45;100997.34;4884960;29;20036;-79
2021/10/09 00:14:05;;;;;;;20.83;11.10;;;;;;;2.21;65.32;100998.22;4900555;29;20364;-78
2021/10/09 00:16:31;;;;;;;16.75;10.82;;;;;;;2.13;65.29;100989.59;4885010;29;20048;-79
2021/10/09 00:18:57;;;;;;;17.77;10.85;;;;;;;2.14;65.48;100992.22;4884704;29;20151;-78
2021/10/09 00:21:23;;;;;;;17.23;10.65;;;;;;;2.10;65.70;100995.78;4884762;29;20055;-79
2021/10/09 00:23:49;;;;;;;16.98;10.57;;;;;;;2.12;65.66;100994.00;4900188;29;20050;-79
2021/10/09 00:26:16;;;;;;;20.00;11.70;;;;;;;2.12;65.60;100993.13;4884567;29;20048;-79
2021/10/09 00:28:42;;;;;;;17.52;11.20;;;;;;;2.13;65.69;100995.72;4884581;29;20116;-81
2021/10/09 00:31:08;;;;;;;18.70;11.20;;;;;;;2.11;65.47;101000.19;4884212;29;20044;-80
2021/10/09 00:33:34;;;;;;;19.00;10.48;;;;;;;2.09;65.73;100990.56;4900335;29;20571;-80
2021/10/09 00:35:59;;;;;;;23.95;11.38;;;;;;;2.08;65.40;100994.97;4900140;29;20070;-80
2021/10/09 00:38:25;;;;;;;17.77;10.90;;;;;;;1.97;65.37;100983.75;4884300;29;20183;-79
2021/10/09 00:40:51;;;;;;;16.08;11.02;;;;;;;2.06;65.51;100999.38;4900128;29;20175;-78
2021/10/09 00:43:17;;;;;;;18.38;10.90;;;;;;;2.05;65.73;100997.66;4899743;29;20134;-78
2021/10/09 00:45:55;;;;;;;17.15;10.85;;;;;;;1.93;65.57;100974.16;4900198;29;20462;-78
2021/10/09 00:48:21;;;;;;;17.92;11.25;;;;;;;2.01;65.89;100981.91;4884691;29;20083;-79
2021/10/09 00:50:47;;;;;;;18.50;11.90;;;;;;;2.03;65.78;100982.75;4901317;29;20056;-79
2021/10/09 00:53:13;;;;;;;17.83;11.52;;;;;;;2.06;65.87;100988.81;4888917;29;20143;-79
2021/10/09 00:55:39;;;;;;;17.63;11.05;;;;;;;2.02;65.99;100981.88;4903497;29;20078;-78
2021/10/09 00:58:06;;;;;;;20.30;11.98;;;;;;;2.11;66.05;100983.50;4901069;29;20052;-79
2021/10/09 01:00:31;;;;;;;19.58;11.23;;;;;;;2.17;66.19;100986.84;4886626;29;20075;-78
2021/10/09 01:02:58;;;;;;;23.38;11.75;;;;;;;2.10;65.86;100964.13;4903320;29;20075;-78
2021/10/09 01:05:24;;;;;;;23.15;11.52;;;;;;;2.25;66.03;100977.94;4922988;29;20050;-79
2021/10/09 01:07:50;;;;;;;18.38;11.40;;;;;;;2.29;66.01;100979.59;4913694;29;20044;-80
2021/10/09 01:10:16;;;;;;;18.75;10.93;;;;;;;2.24;65.66;100965.63;4920949;29;20062;-80
2021/10/09 01:12:42;;;;;;;22.85;11.43;;;;;;;2.12;65.85;100950.94;4918491;29;20051;-78
2021/10/09 01:15:21;;;;;;;18.00;11.50;;;;;;;2.17;65.70;100965.75;4928531;29;20060;-79
2021/10/09 01:17:49;;;;;;;17.50;11.68;;;;;;;2.17;65.61;100964.88;4901372;29;20044;-80
2021/10/09 01:20:15;;;;;;;17.45;12.15;;;;;;;2.12;65.68;100957.06;4890280;29;20459;-78
2021/10/09 01:22:42;;;;;;;19.85;11.57;;;;;;;2.08;65.89;100955.41;4905677;29;20136;-79
2021/10/09 01:25:08;;;;;;;17.63;10.95;;;;;;;2.02;65.45;100947.59;4921531;29;20134;-80
2021/10/09 01:27:35;;;;;;;18.50;11.25;;;;;;;2.11;65.21;100971.16;4922780;29;20051;-81
2021/10/09 01:30:01;;;;;;;25.73;11.63;;;;;;;2.12;65.52;100967.63;4922706;29;20039;-78
2021/10/09 01:32:28;;;;;;;20.05;11.57;;;;;;;2.13;65.40;100972.00;4906903;29;20487;-80
2021/10/09 01:34:54;;;;;;;23.38;11.63;;;;;;;2.04;65.36;100953.72;4923106;29;20134;-77
2021/10/09 01:37:22;;;;;;;24.73;11.20;;;;;;;2.10;65.40;100960.63;4893751;29;20048;-80
2021/10/09 01:39:48;;;;;;;20.15;12.10;;;;;;;2.02;65.06;100944.94;4925862;29;20044;-81
2021/10/09 01:42:24;;;;;;;17.88;10.63;;;;;;;1.98;65.19;100935.34;4902933;29;20040;-79
2021/10/09 01:44:51;;;;;;;20.95;11.95;;;;;;;2.02;65.05;100955.50;4922216;29;20384;-79
2021/10/09 01:47:17;;;;;;;23.30;12.23;;;;;;;1.90;64.85;100935.50;4921918;29;20106;-78
2021/10/09 01:49:44;;;;;;;21.10;12.85;;;;;;;2.00;65.01;100951.19;4918671;29;20072;-79
2021/10/09 01:52:11;;;;;;;18.23;11.93;;;;;;;1.97;65.33;100949.44;4920794;29;20151;-79
2021/10/09 01:54:38;;;;;;;19.13;12.27;;;;;;;1.94;65.30;100941.59;4906191;29;20047;-80
2021/10/09 01:57:05;;;;;;;19.52;12.25;;;;;;;1.93;65.27;100934.59;4919921;29;20575;-80
2021/10/09 01:59:31;;;;;;;18.50;13.23;;;;;;;1.85;65.26;100920.69;4905858;29;20044;-80
2021/10/09 02:02:03;;;;;;;25.35;13.50;;;;;;;1.92;64.94;100948.69;4907050;29;20055;-80
2021/10/09 02:04:30;;;;;;;28.13;15.20;;;;;;;1.83;65.06;100922.47;4905807;29;20044;-79
2021/10/09 02:06:58;;;;;;;33.50;14.00;;;;;;;1.80;65.13;100922.53;4918852;29;20503;-78
2021/10/09 02:09:24;;;;;;;29.08;15.80;;;;;;;1.87;65.02;100939.97;4918669;29;20100;-78
2021/10/09 02:11:51;;;;;;;23.95;14.93;;;;;;;1.87;64.99;100935.56;4902239;29;20126;-78
2021/10/09 02:25:14;;;;;;;24.83;14.88;;;;;;;1.79;64.92;100944.53;4923937;29;20051;-78
2021/10/09 02:27:41;;;;;;;27.92;15.20;;;;;;;1.66;65.08;100942.13;4905652;29;20134;-80
2021/10/09 02:30:07;;;;;;;29.35;15.88;;;;;;;1.72;64.85;100945.53;4904067;29;20051;-79
2021/10/09 02:32:36;;;;;;;;;;;;;;;1.73;64.77;100941.97;4906104;29;20075;-78
2021/10/09 02:35:02;;;;;;;26.75;14.50;;;;;;;1.61;64.66;100941.31;4920285;29;19919;-79
2021/10/09 02:37:28;;;;;;;31.42;14.45;;;;;;;1.58;65.33;100937.84;4905367;29;20056;-79
2021/10/09 02:39:54;;;;;;;27.10;15.45;;;;;;;1.51;65.06;100926.56;4889527;29;20043;-80
2021/10/09 02:42:20;;;;;;;30.17;15.93;;;;;;;1.61;65.14;100943.06;4905003;29;20094;-78
2021/10/09 02:44:46;;;;;;;24.80;15.25;;;;;;;1.63;65.35;100931.63;4905123;29;20190;-79
2021/10/09 02:47:12;;;;;;;29.48;15.48;;;;;;;1.67;65.05;100946.47;4904187;29;20229;-80
2021/10/09 02:49:39;;;;;;;24.98;15.27;;;;;;;1.60;65.03;100926.41;4889506;29;20055;-79
2021/10/09 02:52:06;;;;;;;32.03;16.30;;;;;;;1.71;65.36;100939.38;4920762;29;20044;-79
2021/10/09 02:54:31;;;;;;;29.63;15.25;;;;;;;1.75;65.22;100940.22;4917356;29;20052;-80
2021/10/09 02:56:59;;;;;;;27.98;15.80;;;;;;;1.75;65.01;100925.25;4931830;29;20079;-79
2021/10/09 02:59:25;;;;;;;27.70;16.35;;;;;;;1.83;65.08;100923.34;4920873;29;20478;-84
2021/10/09 03:01:51;;;;;;;29.65;16.85;;;;;;;1.87;64.99;100925.00;4920680;29;20043;-78
2021/10/09 03:04:20;;;;;;;35.70;17.20;;;;;;;1.90;64.84;100927.59;4905245;29;20047;-79
2021/10/09 03:06:46;;;;;;;33.15;17.17;;;;;;;1.97;64.48;100923.09;4920846;29;20394;-85
2021/10/09 03:09:12;;;;;;;32.08;17.13;;;;;;;2.02;64.42;100923.84;4889158;29;20050;-79
2021/10/09 03:11:40;;;;;;;36.90;17.65;;;;;;;2.06;64.13;100916.75;4920455;29;20043;-82
2021/10/09 03:14:16;;;;;;;25.80;15.10;;;;;;;2.01;64.01;100905.44;4904462;29;20058;-80
2021/10/09 03:16:42;;;;;;;35.60;16.98;;;;;;;2.17;63.94;100914.75;4920527;29;20114;-79
2021/10/09 03:19:08;;;;;;;46.90;17.67;;;;;;;2.24;63.70;100926.94;4904773;29;20063;-84
2021/10/09 03:21:34;;;;;;;39.00;17.27;;;;;;;2.30;63.38;100923.31;4920436;29;20388;-80
2021/10/09 03:24:00;;;;;;;43.83;17.08;;;;;;;2.25;63.27;100898.78;4918069;29;20487;-84
2021/10/09 03:26:26;;;;;;;27.10;14.38;;;;;;;2.35;63.38;100913.53;4920076;29;20130;-80
2021/10/09 03:28:52;;;;;;;38.53;15.55;;;;;;;2.43;63.23;100914.22;4901095;29;20036;-79
2021/10/09 03:31:18;;;;;;;37.15;16.98;;;;;;;2.47;63.05;100921.16;4912211;29;20047;-81
2021/10/09 03:33:44;;;;;;;38.30;15.93;;;;;;;2.54;62.83;100921.91;4919998;29;20134;-82
2021/10/09 03:36:10;;;;;;;29.67;15.60;;;;;;;2.58;62.58;100918.31;4904146;29;20377;-79
2021/10/09 03:38:38;;;;;;;36.97;16.27;;;;;;;2.53;62.82;100899.94;4900874;29;20051;-79
2021/10/09 03:41:10;;;;;;;45.13;17.58;;;;;;;2.66;62.77;100922.50;4916391;29;20098;-83
2021/10/09 03:43:37;;;;;;;44.33;20.88;;;;;;;2.66;62.59;100911.94;4903905;29;20063;-81
2021/10/09 03:46:15;;;;;;;46.67;18.27;;;;;;;2.70;62.69;100918.00;4917913;29;20393;-82
2021/10/09 03:54:13;;;;;;;31.58;18.38;;;;;;;2.94;62.58;100936.88;4921705;29;20074;-83
2021/10/09 03:56:40;;;;;;;43.72;20.45;;;;;;;3.01;62.31;100922.59;4919546;29;20518;-80
2021/10/09 03:59:08;;;;;;;36.28;20.70;;;;;;;3.08;62.16;100922.41;4919378;29;20052;-82
2021/10/09 04:01:35;;;;;;;41.75;20.85;;;;;;;3.12;61.92;100929.38;4935196;29;20051;-84
2021/10/09 04:04:01;;;;;;;34.97;21.17;;;;;;;3.12;62.22;100920.56;4919302;29;20527;-84
2021/10/09 04:06:27;;;;;;;40.13;19.60;;;;;;;3.17;62.07;100924.84;4903684;29;20040;-78
2021/10/09 04:08:53;;;;;;;33.95;19.25;;;;;;;3.20;61.85;100917.72;4919155;29;20063;-77
2021/10/09 04:11:19;;;;;;;40.95;20.80;;;;;;;3.24;61.76;100930.00;4919334;29;20098;-77
2021/10/09 04:13:46;;;;;;;42.58;20.80;;;;;;;3.21;61.87;100919.50;4903296;29;20518;-78
2021/10/09 04:16:12;;;;;;;35.30;19.20;;;;;;;3.37;61.96;100926.13;4903452;29;20047;-80
2021/10/09 04:18:38;;;;;;;37.10;18.70;;;;;;;3.40;61.79;100918.13;4918973;29;20138;-76
2021/10/09 04:21:04;;;;;;;32.33;18.40;;;;;;;3.50;61.64;100916.09;4934387;29;20047;-78
2021/10/09 04:23:30;;;;;;;34.92;19.20;;;;;;;3.70;61.93;100934.09;4918941;29;20048;-78
2021/10/09 04:26:09;;;;;;;32.20;17.65;;;;;;;3.79;61.56;100923.25;5100433;27;1483862;-77
2021/10/09 04:28:35;;;;;;;27.05;17.65;;;;;;;3.88;61.54;100917.75;5096805;28;20035;-79
2021/10/09 04:31:02;;;;;;;26.42;17.02;;;;;;;3.93;61.48;100920.25;5058941;28;20050;-78
2021/10/09 04:33:30;;;;;;;33.83;18.77;;;;;;;4.03;61.34;100922.59;5062411;28;20031;-79
2021/10/09 04:35:56;;;;;;;29.10;17.23;;;;;;;4.11;61.16;100923.25;5062525;28;20039;-80
2021/10/09 04:38:22;;;;;;;29.83;17.35;;;;;;;4.13;61.27;100905.53;5112253;28;20036;-77
2021/10/09 04:40:49;;;;;;;32.20;17.98;;;;;;;4.31;60.99;100927.97;5112774;28;20046;-81
2021/10/09 04:43:15;;;;;;;28.70;18.02;;;;;;;4.35;60.96;100920.81;5095613;28;20070;-82
2021/10/09 04:45:43;;;;;;;27.10;19.02;;;;;;;4.46;61.14;100916.06;5062581;28;20047;-81
2021/10/09 04:48:10;;;;;;;34.65;20.55;;;;;;;4.63;61.15;100927.03;5078739;28;20071;-79
2021/10/09 04:50:36;;;;;;;36.40;23.38;;;;;;;4.70;60.91;100925.06;5112327;28;20579;-80
2021/10/09 04:53:05;;;;;;;45.78;29.33;;;;;;;4.74;60.81;100907.28;5063042;28;20497;-79
2021/10/09 04:55:32;;;;;;;48.03;28.13;;;;;;;4.89;60.81;100893.56;5078349;28;20505;-78
2021/10/09 04:57:59;;;;;;;39.78;27.30;;;;;;;5.10;60.52;100915.84;5078044;28;20031;-81
2021/10/09 05:00:25;;;;;;;45.65;27.50;;;;;;;5.16;60.33;100920.09;5061724;28;20035;-80
2021/10/09 05:02:52;;;;;;;44.38;28.23;;;;;;;5.23;60.29;100911.03;5077988;28;20071;-78
2021/10/09 05:05:18;;;;;;;47.47;28.15;;;;;;;5.43;60.05;100919.19;5077828;28;20066;-80
2021/10/09 05:07:44;;;;;;;41.22;27.98;;;;;;;5.58;59.76;100921.31;5061175;28;20043;-78
2021/10/09 05:10:11;;;;;;;51.22;28.88;;;;;;;5.64;59.64;100914.06;5111935;28;20086;-79
2021/10/09 05:12:37;;;;;;;50.47;26.75;;;;;;;5.77;59.39;100907.41;5061653;28;20031;-79
2021/10/09 05:15:04;;;;;;;59.40;27.98;;;;;;;5.85;59.22;100902.69;5096212;28;20055;-79
2021/10/09 05:17:30;;;;;;;63.08;29.58;;;;;;;6.05;59.14;100917.94;5081286;28;20539;-81
2021/10/09 05:19:56;;;;;;;53.88;28.88;;;;;;;6.20;58.89;100914.72;5064984;28;20134;-79
2021/10/09 05:22:22;;;;;;;50.95;28.75;;;;;;;6.28;58.55;100901.16;5115392;28;20076;-81
2021/10/09 05:24:53;;;;;;;;;;;;;;;6.45;58.18;100919.97;5083932;28;20082;-80
2021/10/09 05:27:21;;;;;;;51.88;30.73;;;;;;;6.49;58.31;100897.69;5113176;28;19923;-77
2021/10/09 05:29:48;;;;;;;46.05;28.45;;;;;;;6.65;57.60;100899.75;5111462;28;20045;-78
2021/10/09 05:32:22;;;;;;;53.42;28.23;;;;;;;6.84;57.69;100919.34;5102874;28;20550;-79
2021/10/09 05:34:48;;;;;;;49.10;28.50;;;;;;;6.98;57.22;100906.38;5060575;28;20042;-79
2021/10/09 05:37:14;;;;;;;45.30;27.08;;;;;;;7.13;56.99;100910.22;5079089;28;20051;-80
2021/10/09 05:39:40;;;;;;;50.78;27.33;;;;;;;7.12;56.69;100904.97;5027637;28;20138;-80
2021/10/09 05:42:06;;;;;;;43.63;25.20;;;;;;;7.19;56.99;100909.97;5045208;28;20131;-79
2021/10/09 05:44:32;;;;;;;38.75;23.65;;;;;;;7.28;56.59;100906.06;5063839;28;20054;-79
2021/10/09 05:46:59;;;;;;;38.03;24.30;;;;;;;7.32;56.15;100906.81;5063585;28;20039;-79
2021/10/09 05:49:25;;;;;;;40.72;23.33;;;;;;;7.39;56.19;100903.81;5063692;28;20508;-77
2021/10/09 05:54:22;;;;;;;32.10;21.23;;;;;;;7.50;55.54;100909.56;5064307;28;20181;-81
2021/10/09 05:56:55;;;;;;;29.02;19.38;;;;;;;7.47;55.26;100908.81;5083094;28;20066;-80
2021/10/09 06:00:05;;;;;;;28.55;18.83;;;;;;;7.58;55.69;100893.28;5082383;28;20035;-80
2021/10/09 06:45:55;;;;;;;33.55;13.70;;;;;;;9.83;50.60;100892.41;5081910;28;20490;-79
2021/10/09 06:59:36;;;;;;;21.15;11.07;;;;;;;10.21;48.18;100871.66;5098212;28;20075;-79
2021/10/09 07:02:02;;;;;;;22.65;11.15;;;;;;;10.33;48.18;100873.69;5097591;28;20577;-78
2021/10/09 07:04:29;;;;;;;22.13;10.77;;;;;;;10.54;48.35;100881.50;5062128;28;20071;-79
2021/10/09 07:07:00;;;;;;;17.85;12.10;;;;;;;10.67;47.77;100870.00;5046212;28;20088;-78
2021/10/09 07:09:34;;;;;;;19.90;10.95;;;;;;;10.53;46.95;100874.38;5065269;28;20039;-79
2021/10/09 07:12:04;;;;;;;23.98;11.43;;;;;;;10.68;47.28;100879.78;5046913;28;20112;-78
2021/10/09 07:14:33;;;;;;;;;;;;;;;10.87;46.62;100876.03;5080167;28;20172;-78
2021/10/09 07:17:00;;;;;;;16.73;9.50;;;;;;;10.99;45.81;100869.16;5079016;28;20405;-78
2021/10/09 07:19:26;;;;;;;16.30;10.13;;;;;;;11.13;45.44;100872.75;5061926;28;20044;-78
2021/10/09 07:21:52;;;;;;;18.67;9.75;;;;;;;11.14;45.79;100868.25;5078462;28;20038;-79
2021/10/09 07:24:19;;;;;;;14.52;9.50;;;;;;;11.19;45.01;100868.84;5061769;28;20043;-77
2021/10/09 07:26:46;;;;;;;19.20;9.98;;;;;;;11.12;43.91;100859.44;5045363;28;20044;-78
2021/10/09 07:29:11;;;;;;;14.63;9.45;;;;;;;10.93;44.33;100868.53;5078477;28;20070;-78
2021/10/09 07:31:38;;;;;;;20.25;10.60;;;;;;;10.78;44.63;100853.34;5061862;28;20050;-78
2021/10/09 07:34:04;;;;;;;16.90;9.85;;;;;;;11.17;44.73;100860.06;5095476;28;20035;-79
2021/10/09 07:36:30;;;;;;;13.70;9.60;;;;;;;11.39;44.62;100855.13;5045277;28;20440;-78
2021/10/09 07:38:56;;;;;;;14.43;9.68;;;;;;;11.70;44.50;100858.69;5079134;28;20039;-79
2021/10/09 07:41:23;;;;;;;14.23;9.20;;;;;;;11.80;43.99;100849.09;5061614;28;20074;-79
2021/10/09 07:43:52;;;;;;;14.18;9.43;;;;;;;11.91;43.83;100852.03;5062399;28;20406;-78
2021/10/09 07:46:21;;;;;;;18.65;9.30;;;;;;;12.02;43.82;100835.28;5062115;28;20533;-79
2021/10/09 07:48:47;;;;;;;14.80;9.38;;;;;;;12.04;42.69;100841.44;5046083;28;20126;-79
2021/10/09 07:51:27;;;;;;;17.67;10.25;;;;;;;11.85;42.67;100798.84;5078576;28;20059;-80
2021/10/09 07:53:54;;;;;;;16.42;9.45;;;;;;;12.13;42.49;100848.88;5061900;28;20071;-78
2021/10/09 07:56:20;;;;;;;17.23;10.20;;;;;;;12.18;42.27;100842.38;5095144;28;20042;-80
2021/10/09 07:58:46;;;;;;;17.77;9.05;;;;;;;12.17;42.29;100836.16;5078058;28;20066;-79
2021/10/09 08:01:14;;;;;;;15.60;9.35;;;;;;;11.76;42.30;100828.81;5095349;28;20043;-79
2021/10/09 08:03:41;;;;;;;15.02;9.80;;;;;;;11.99;42.76;100826.56;5061806;28;20039;-78
2021/10/09 08:06:07;;;;;;;19.40;10.60;;;;;;;12.18;42.49;100837.00;5061390;28;20047;-79
2021/10/09 08:08:33;;;;;;;14.13;9.55;;;;;;;12.58;42.24;100829.97;5042761;28;20047;-79
2021/10/09 08:10:59;;;;;;;16.05;9.93;;;;;;;12.66;41.11;100822.28;5065230;28;20049;-79
2021/10/09 08:13:26;;;;;;;18.50;10.13;;;;;;;12.74;41.70;100825.31;5044754;28;20051;-78
2021/10/09 08:16:00;;;;;;;19.55;11.18;;;;;;;12.84;41.02;100807.66;5061114;28;20051;-78
2021/10/09 08:18:35;;;;;;;16.50;10.40;;;;;;;12.82;41.17;100806.88;5065769;28;20044;-79
2021/10/09 08:21:04;;;;;;;14.57;10.30;;;;;;;13.16;40.81;100814.53;5077497;28;20054;-80
2021/10/09 08:23:38;;;;;;;15.07;10.63;;;;;;;13.35;40.60;100815.03;5044941;28;20040;-79
2021/10/09 08:39:32;;;;;;;10.57;7.18;;;;;;;14.39;37.06;100798.75;5095531;28;20497;-79
2021/10/09 08:41:58;;;;;;;10.63;7.63;;;;;;;14.03;36.93;100787.03;5044297;28;20455;-79
2021/10/09 08:44:24;;;;;;;10.98;7.45;;;;;;;14.13;37.21;100771.91;5060768;28;20047;-80
2021/10/09 08:46:50;;;;;;;15.00;8.30;;;;;;;14.22;36.75;100783.88;5060662;28;20520;-80
2021/10/09 08:49:16;;;;;;;15.93;12.75;;;;;;;14.51;37.53;100779.06;5077606;28;20067;-79
2021/10/09 08:51:42;;;;;;;10.88;8.60;;;;;;;14.85;37.03;100787.31;5094694;28;20054;-81
2021/10/09 08:54:10;;;;;;;15.32;7.53;;;;;;;15.05;36.14;100778.63;5044115;28;20039;-79
2021/10/09 08:56:40;;;;;;;14.98;7.47;;;;;;;14.99;35.26;100750.31;5077680;28;20043;-80
2021/10/09 08:59:10;;;;;;;12.25;7.65;;;;;;;14.93;35.84;100755.28;5076943;28;20047;-79
2021/10/09 09:01:47;;;;;;;12.27;7.50;;;;;;;14.99;34.03;100752.16;5081015;28;20142;-78
2021/10/09 09:09:32;;;;;;;12.75;6.50;;;;;;;15.62;32.81;100748.16;5077545;28;20062;-79
2021/10/09 09:32:13;;;;;;;14.40;7.25;;;;;;;16.35;31.96;100722.50;5114785;28;20051;-84
2021/10/09 09:40:06;;;;;;;14.95;6.80;;;;;;;16.55;30.62;100723.56;5068143;28;20043;-78
2021/10/09 09:42:33;;;;;;;8.43;6.10;;;;;;;16.47;30.35;100729.59;5047699;28;20043;-79
2021/10/09 09:45:00;;;;;;;11.07;6.35;;;;;;;16.56;30.83;100711.78;5047760;28;20043;-78
2021/10/09 09:47:35;;;;;;;13.43;7.22;;;;;;;16.51;30.96;100705.88;5048127;28;20039;-79
2021/10/09 09:50:03;;;;;;;14.55;7.93;;;;;;;16.44;30.55;100710.97;5097584;28;20046;-79
2021/10/09 09:52:29;;;;;;;13.73;7.68;;;;;;;16.59;30.49;100716.06;5080481;28;20487;-79
2021/10/09 09:54:55;;;;;;;11.90;7.05;;;;;;;16.52;30.23;100704.94;5080693;28;20036;-77
2021/10/09 09:57:21;;;;;;;9.48;6.85;;;;;;;16.45;30.80;100703.72;5080659;28;20044;-78
2021/10/09 09:59:47;;;;;;;15.80;8.35;;;;;;;16.69;30.84;100714.31;5080755;28;20044;-78
2021/10/09 10:02:15;;;;;;;12.32;7.20;;;;;;;17.02;29.85;100715.19;5063878;28;20498;-78
2021/10/09 10:04:41;;;;;;;9.73;6.97;;;;;;;17.06;29.78;100695.88;5080236;28;20376;-78
2021/10/09 10:07:07;;;;;;;13.40;7.22;;;;;;;17.22;29.54;100717.00;5063173;28;20043;-79
2021/10/09 10:09:33;;;;;;;13.82;6.60;;;;;;;17.20;29.19;100706.34;5047317;28;20046;-78
2021/10/09 10:12:03;;;;;;;15.55;6.85;;;;;;;17.41;29.35;100690.13;5080024;28;20036;-78
2021/10/09 10:14:30;;;;;;;13.60;6.25;;;;;;;17.88;28.81;100695.06;5063740;28;20047;-78
2021/10/09 10:16:59;;;;;;;10.82;5.90;;;;;;;18.07;28.52;100697.84;5063493;28;20047;-79
2021/10/09 10:19:50;;;;;;;9.80;6.40;;;;;;;18.17;28.06;100693.31;5097221;28;20047;-79
2021/10/09 10:22:36;;;;;;;11.55;6.40;;;;;;;18.03;28.28;100696.41;5079297;28;20044;-78
2021/10/09 10:25:03;;;;;;;10.27;6.03;;;;;;;17.95;27.64;100698.94;5064959;28;20060;-79
2021/10/09 10:27:42;;;;;;;8.52;6.15;;;;;;;18.10;28.34;100686.75;5058555;28;20464;-78
2021/10/09 10:30:14;;;;;;;9.35;5.35;;;;;;;18.11;28.05;100674.91;5097847;28;20077;-84
2021/10/09 10:32:56;;;;;;;8.15;5.82;;;;;;;18.57;27.72;100700.47;5079076;28;20410;-81
2021/10/09 10:35:34;;;;;;;7.80;5.93;;;;;;;18.66;27.36;100682.53;5029091;28;20043;-79
2021/10/09 10:38:11;;;;;;;10.02;5.97;;;;;;;18.93;26.54;100681.84;5039929;28;20102;-79
2021/10/09 10:40:49;;;;;;;10.00;6.32;;;;;;;19.05;26.00;100679.84;5072413;28;20446;-80
2021/10/09 10:43:46;;;;;;;16.95;7.22;;;;;;;18.21;26.82;100685.78;5056391;28;20465;-82
2021/10/09 10:46:27;;;;;;;9.52;6.00;;;;;;;18.62;27.26;100686.53;5055771;28;20488;-80
2021/10/09 10:54:21;;;;;;;11.75;5.53;;;;;;;18.65;26.13;100665.44;5056120;28;20377;-80
2021/10/09 10:57:00;;;;;;;9.57;5.63;;;;;;;18.61;26.70;100684.81;5024834;28;20044;-80
2021/10/09 11:02:30;;;;;;;8.63;5.65;;;;;;;19.59;25.99;100665.56;5056830;28;20051;-81
2021/10/09 11:05:01;;;;;;;12.00;6.00;;;;;;;19.58;25.44;100652.16;5056761;28;20090;-80
2021/10/09 11:07:30;;;;;;;8.35;6.05;;;;;;;19.35;25.75;100648.94;5038848;28;20036;-79
2021/10/09 11:10:18;;;;;;;9.88;5.25;;;;;;;19.53;25.81;100665.31;5055724;28;20048;-80
2021/10/09 11:12:49;;;;;;;9.90;5.17;;;;;;;19.47;25.53;100660.47;5057996;28;20047;-80
2021/10/09 11:15:29;;;;;;;8.95;5.38;;;;;;;19.44;25.89;100656.19;5072467;28;20052;-80
2021/10/09 11:17:54;;;;;;;9.25;5.32;;;;;;;19.93;25.14;100661.44;5040351;28;20083;-80
2021/10/09 11:20:36;;;;;;;9.93;5.30;;;;;;;20.03;24.50;100657.66;5072223;28;20084;-79
2021/10/09 11:23:09;;;;;;;6.82;4.90;;;;;;;20.24;24.78;100653.84;5055406;28;20056;-80
2021/10/09 11:25:37;;;;;;;9.32;5.43;;;;;;;20.43;24.50;100652.84;5071548;28;20555;-79
2021/10/09 11:28:04;;;;;;;7.68;5.13;;;;;;;20.66;24.43;100653.28;5054734;28;20049;-79
2021/10/09 11:30:31;;;;;;;6.32;5.32;;;;;;;20.84;23.83;100652.25;5054993;28;20069;-80
2021/10/09 11:32:57;;;;;;;8.00;5.05;;;;;;;20.67;23.54;100653.09;5054973;28;20033;-80
2021/10/09 11:35:33;;;;;;;7.95;4.95;;;;;;;20.71;23.26;100646.34;5070977;28;20239;-81
2021/10/09 11:38:02;;;;;;;6.25;5.05;;;;;;;20.82;23.87;100643.38;5055568;28;20498;-80
2021/10/09 11:40:48;;;;;;;7.45;5.28;;;;;;;20.70;23.34;100654.66;5069159;28;20422;-81
2021/10/09 11:43:23;;;;;;;8.35;5.15;;;;;;;20.59;23.81;100648.44;5025035;28;20101;-80
2021/10/09 11:54:03;;;;;;;9.07;5.10;;;;;;;20.77;23.64;100639.44;5026692;28;20040;-79
2021/10/09 11:56:29;;;;;;;9.48;5.35;;;;;;;20.99;23.08;100625.34;5022941;28;20059;-79
2021/10/09 11:59:01;;;;;;;7.88;5.28;;;;;;;20.92;22.77;100632.44;5037843;28;20127;-79
2021/10/09 12:01:28;;;;;;;8.88;5.35;;;;;;;20.76;22.99;100635.00;5006575;28;20036;-82
2021/10/09 12:03:55;;;;;;;15.95;5.30;;;;;;;20.74;23.21;100628.88;5021266;28;20075;-80
2021/10/09 12:06:21;;;;;;;8.63;5.43;;;;;;;21.15;22.99;100631.91;5037507;28;20045;-81
2021/10/09 12:08:51;;;;;;;7.38;4.85;;;;;;;21.37;22.82;100625.13;5004596;28;20148;-81
2021/10/09 12:11:23;;;;;;;9.63;5.53;;;;;;;20.91;22.77;100630.72;5053699;28;20145;-82
2021/10/09 12:14:06;;;;;;;9.30;5.03;;;;;;;20.48;23.18;100607.06;5071486;28;20044;-81
2021/10/09 12:16:38;;;;;;;9.40;5.10;;;;;;;20.86;23.28;100624.91;5021081;28;20048;-82
2021/10/09 12:19:07;;;;;;;7.03;5.35;;;;;;;21.00;23.35;100624.31;5054666;28;20131;-80
2021/10/09 12:21:53;;;;;;;9.88;4.97;;;;;;;21.17;22.94;100614.41;5054745;28;20048;-79
2021/10/09 12:24:24;;;;;;;11.00;5.40;;;;;;;21.10;22.85;100619.66;5063272;28;20048;-83
2021/10/09 12:27:12;;;;;;;11.60;4.93;;;;;;;20.85;22.86;100609.59;5020657;28;20044;-81
2021/10/09 12:30:04;;;;;;;10.50;5.40;;;;;;;20.91;22.91;100608.09;5055068;28;20047;-78
2021/10/09 12:32:50;;;;;;;11.40;5.47;;;;;;;21.14;22.99;100612.03;5022599;28;20067;-78
2021/10/09 12:35:30;;;;;;;11.30;5.20;;;;;;;21.04;23.01;100614.00;5070487;28;20392;-79
2021/10/09 12:38:18;;;;;;;9.52;4.93;;;;;;;20.54;23.31;100607.31;5039319;28;20595;-78
2021/10/09 12:41:01;;;;;;;13.38;5.03;;;;;;;20.73;23.25;100610.88;5056355;28;20052;-79
2021/10/09 12:43:27;;;;;;;10.07;5.22;;;;;;;20.67;23.68;100606.91;5045470;28;20040;-79
2021/10/09 12:45:53;;;;;;;10.18;4.95;;;;;;;20.44;23.68;100606.50;5024388;28;20085;-79
2021/10/09 12:48:20;;;;;;;12.02;5.30;;;;;;;20.26;23.99;100608.38;5079629;28;20058;-80
2021/10/09 12:50:46;;;;;;;12.75;5.20;;;;;;;20.21;24.19;100594.41;5047802;28;20140;-80
2021/10/09 12:53:12;;;;;;;8.35;5.70;;;;;;;20.00;24.34;100613.69;5064395;28;20038;-82
2021/10/09 12:55:39;;;;;;;6.60;5.13;;;;;;;18.85;25.46;100605.88;5080517;28;20043;-80
2021/10/09 12:58:09;;;;;;;11.95;5.10;;;;;;;17.90;26.66;100598.38;5048040;28;20039;-79
2021/10/09 13:00:35;;;;;;;10.32;5.70;;;;;;;17.00;28.00;100609.97;5065136;28;20054;-82
2021/10/09 13:03:09;;;;;;;8.45;5.50;;;;;;;16.33;28.96;100611.16;5081220;28;20513;-79
2021/10/09 13:05:41;;;;;;;12.07;5.68;;;;;;;15.79;29.28;100612.88;5099132;28;20039;-79
2021/10/09 13:08:06;;;;;;;8.68;6.00;;;;;;;15.36;30.52;100603.84;5098161;28;20035;-80
2021/10/09 13:10:45;;;;;;;13.90;5.60;;;;;;;15.04;30.92;100604.53;5080314;28;20049;-79
2021/10/09 13:13:11;;;;;;;11.55;6.75;;;;;;;14.65;31.14;100603.97;5115764;28;20394;-80
2021/10/09 13:15:40;;;;;;;7.60;5.80;;;;;;;14.47;31.91;100595.44;5079269;28;20043;-81
2021/10/09 13:22:11;;;;;;;10.63;6.78;;;;;;;13.64;32.72;100562.28;4971582;28;20121;-81
2021/10/09 13:24:38;;;;;;;11.02;6.85;;;;;;;13.52;33.34;100580.16;4926204;28;20054;-80
2021/10/09 13:27:04;;;;;;;11.88;6.20;;;;;;;13.51;33.12;100597.25;5037754;28;20052;-81
2021/10/09 13:29:35;;;;;;;15.80;7.03;;;;;;;13.39;33.28;100600.81;5059723;28;20056;-81
2021/10/09 13:32:03;;;;;;;14.20;7.20;;;;;;;13.19;33.71;100578.91;5012247;28;20040;-82
2021/10/09 13:34:33;;;;;;;15.43;6.93;;;;;;;13.07;33.88;100580.63;5027367;28;20086;-80
2021/10/09 13:37:05;;;;;;;17.60;7.38;;;;;;;12.87;33.88;100579.34;5042983;28;20049;-83
2021/10/09 13:39:45;;;;;;;17.25;8.35;;;;;;;12.95;34.01;100604.81;5040817;28;20479;-81
2021/10/09 13:42:27;;;;;;;18.65;9.07;;;;;;;12.48;34.74;100550.78;5075860;28;20048;-80
2021/10/09 13:45:01;;;;;;;13.40;8.98;;;;;;;12.54;34.72;100568.28;5045626;28;20071;-81
2021/10/09 13:47:30;;;;;;;19.80;9.77;;;;;;;12.50;35.02;100585.53;5041498;28;20044;-81